Time;durP1;ratioP1;P1;durP2;ratioP2;P2;SDS_P1;SDS_P2;PMS_P1;PMS_P2;Temp;Humidity;BMP_temperature;BMP_pressure;BME280_temperature;BME280_humidity;BME280_pressure;Samples;Min_cycle;Max_cycle;Signal;HPM_P1;HPM_P2
2022/06/21 00:00:29;;;;;;;5.35;4.03;;;;;;;15.21;81.96;96109.77;1734272;82;21026;-81
2022/06/21 00:03:00;;;;;;;4.80;3.10;;;;;;;15.25;82.26;96105.70;1729216;80;21120;-81
2022/06/21 00:05:34;;;;;;;3.30;2.70;;;;;;;15.27;82.20;96112.82;1677970;83;21006;-80
2022/06/21 00:08:03;;;;;;;4.40;3.00;;;;;;;15.27;82.48;96114.13;1713530;82;20986;-81
2022/06/21 00:10:34;;;;;;;3.98;3.02;;;;;;;15.28;82.91;96128.81;1721361;82;20995;-80
2022/06/21 00:12:56;;;;;;;4.37;3.30;;;;;;;15.24;82.59;96131.58;1725885;81;20997;-81
2022/06/21 00:15:22;;;;;;;4.03;2.85;;;;;;;15.14;82.98;96128.68;1754363;81;20982;-81
2022/06/21 00:17:49;;;;;;;5.78;3.12;;;;;;;15.06;82.68;96139.41;1764328;81;20944;-81
2022/06/21 00:20:20;;;;;;;5.92;3.85;;;;;;;14.89;82.67;96137.84;1738948;81;21011;-81
2022/06/21 00:22:48;;;;;;;3.72;3.30;;;;;;;14.78;82.71;96143.77;1728361;80;20989;-81
2022/06/21 00:25:21;;;;;;;4.53;3.00;;;;;;;14.67;83.16;96143.97;1694823;82;21003;-81
2022/06/21 00:27:47;;;;;;;4.80;3.80;;;;;;;14.59;83.38;96140.30;1753210;81;21440;-81
2022/06/21 00:30:14;;;;;;;5.50;4.08;;;;;;;14.51;83.15;96145.80;1740017;81;21046;-81
2022/06/21 00:32:41;;;;;;;4.72;3.90;;;;;;;14.46;83.33;96148.22;1722703;81;20996;-80
2022/06/21 00:35:13;;;;;;;4.47;4.10;;;;;;;14.38;82.92;96157.10;1707939;83;20969;-80
2022/06/21 00:37:40;;;;;;;5.10;4.60;;;;;;;14.30;83.11;96162.56;1731208;80;20986;-80
2022/06/21 00:40:29;;;;;;;4.17;3.55;;;;;;;14.26;83.46;96161.89;1683716;82;21422;-81
2022/06/21 00:43:03;;;;;;;4.58;3.67;;;;;;;14.22;83.10;96158.91;1715913;80;21025;-81
2022/06/21 00:45:37;;;;;;;5.62;4.10;;;;;;;14.19;83.47;96151.48;1697801;82;21031;-80
2022/06/21 00:48:34;;;;;;;11.05;3.98;;;;;;;14.21;84.07;96158.61;1741831;81;20978;-80
2022/06/21 00:51:35;;;;;;;4.70;3.17;;;;;;;14.23;84.20;96147.44;1725008;82;20938;-80
2022/06/21 00:54:24;;;;;;;5.28;3.45;;;;;;;14.27;84.40;96149.92;1704777;83;20933;-81
2022/06/21 00:56:58;;;;;;;4.95;3.47;;;;;;;14.30;84.63;96145.58;1713117;82;21024;-80
2022/06/21 00:59:31;;;;;;;5.55;3.50;;;;;;;14.37;84.84;96142.94;1686767;83;21063;-81
2022/06/21 01:02:03;;;;;;;5.05;2.90;;;;;;;14.41;84.56;96137.58;1710967;81;21032;-80
2022/06/21 01:04:36;;;;;;;3.67;3.37;;;;;;;14.40;84.34;96140.70;1713650;82;20998;-81
2022/06/21 01:07:06;;;;;;;3.00;2.62;;;;;;;14.39;83.85;96135.17;1728549;83;20991;-81
2022/06/21 01:09:52;;;;;;;5.97;3.20;;;;;;;14.37;83.82;96128.05;1724477;81;20963;-81
2022/06/21 01:12:23;;;;;;;4.53;2.98;;;;;;;14.40;83.90;96129.44;1716799;80;21070;-81
2022/06/21 01:14:55;;;;;;;3.58;3.27;;;;;;;14.42;84.09;96120.87;1739412;81;21023;-81
2022/06/21 01:17:20;;;;;;;5.47;2.83;;;;;;;14.44;84.18;96119.39;1741844;82;21067;-81
2022/06/21 01:19:51;;;;;;;3.35;2.85;;;;;;;14.45;84.04;96110.53;1722382;82;22478;-81
2022/06/21 01:22:57;;;;;;;4.28;2.77;;;;;;;14.45;84.27;96111.33;1700788;83;21042;-81
2022/06/21 01:25:53;;;;;;;4.42;3.08;;;;;;;14.50;84.33;96112.02;1730035;82;21072;-82
2022/06/21 01:28:19;;;;;;;4.62;3.47;;;;;;;14.49;84.18;96114.34;1736978;81;21305;-82
2022/06/21 01:30:52;;;;;;;3.90;3.37;;;;;;;14.42;84.16;96116.45;1736972;82;20968;-81
2022/06/21 01:33:28;;;;;;;4.25;3.37;;;;;;;14.43;84.42;96110.72;1729400;81;21036;-81
2022/06/21 01:35:55;;;;;;;3.98;3.52;;;;;;;14.45;84.19;96115.76;1732641;81;20932;-81
2022/06/21 01:38:32;;;;;;;4.58;3.70;;;;;;;14.38;83.81;96114.48;1722157;82;21380;-82
2022/06/21 01:41:03;;;;;;;4.50;3.60;;;;;;;14.32;83.75;96109.60;1749474;81;21347;-80
2022/06/21 01:43:29;;;;;;;6.62;4.20;;;;;;;14.34;84.44;96115.42;1748531;81;20999;-82
2022/06/21 01:46:01;;;;;;;7.45;5.35;;;;;;;14.33;84.05;96120.86;1748039;81;21070;-81
2022/06/21 01:48:47;;;;;;;6.45;5.28;;;;;;;14.26;84.36;96120.87;1736741;81;21085;-81
2022/06/21 01:51:23;;;;;;;6.75;5.80;;;;;;;14.22;84.26;96118.91;1735748;81;20914;-81
2022/06/21 01:53:49;;;;;;;7.45;5.67;;;;;;;14.15;83.90;96115.02;1708304;83;21372;-80
2022/06/21 01:56:21;;;;;;;8.75;6.42;;;;;;;14.10;84.01;96120.87;1692503;83;21027;-81
2022/06/21 01:59:02;;;;;;;7.67;6.40;;;;;;;14.05;84.30;96115.48;1719732;82;21093;-81
2022/06/21 02:01:55;;;;;;;8.10;7.30;;;;;;;14.05;84.71;96116.80;1680982;83;20948;-82
2022/06/21 02:04:23;;;;;;;;;;;;;;;14.01;84.47;96122.66;1723543;82;21064;-82
2022/06/21 02:06:49;;;;;;;9.28;7.50;;;;;;;14.00;84.67;96121.85;1711996;82;20080;-81
2022/06/21 02:09:20;;;;;;;7.53;6.83;;;;;;;13.92;84.68;96119.97;1683604;84;21371;-81
2022/06/21 02:11:51;;;;;;;6.97;6.08;;;;;;;13.94;85.21;96124.48;1716688;83;20993;-81
2022/06/21 02:14:28;;;;;;;7.00;5.62;;;;;;;13.89;84.91;96132.95;1703601;83;21560;-81
2022/06/21 02:16:54;;;;;;;6.33;5.03;;;;;;;13.85;84.66;96142.22;1706280;84;20992;-81
2022/06/21 02:19:42;;;;;;;4.95;4.25;;;;;;;13.77;84.29;96143.23;1722331;82;21015;-80
2022/06/21 02:22:16;;;;;;;6.30;4.97;;;;;;;13.70;84.07;96147.70;1697943;82;21011;-81
2022/06/21 02:24:42;;;;;;;5.25;4.35;;;;;;;13.59;83.95;96143.61;1699515;82;21508;-82
2022/06/21 02:27:09;;;;;;;6.15;4.58;;;;;;;13.53;84.04;96149.16;1691962;82;21043;-82
2022/06/21 02:29:35;;;;;;;6.17;4.60;;;;;;;13.44;83.92;96159.52;1697337;83;21402;-81
2022/06/21 02:32:03;;;;;;;6.20;4.80;;;;;;;13.37;83.67;96158.73;1707316;82;21002;-80
2022/06/21 02:34:34;;;;;;;7.10;5.00;;;;;;;13.35;84.17;96151.12;1678853;83;21039;-81
2022/06/21 02:37:00;;;;;;;6.30;5.08;;;;;;;13.39;84.73;96154.11;1699373;82;20972;-82
2022/06/21 02:39:28;;;;;;;6.87;5.60;;;;;;;13.37;84.04;96150.41;1688130;82;21015;-81
2022/06/21 02:42:22;;;;;;;8.85;5.47;;;;;;;13.37;84.36;96155.62;1697094;82;21038;-81
2022/06/21 02:44:55;;;;;;;5.37;4.53;;;;;;;13.35;84.35;96152.92;1695120;82;21071;-83
2022/06/21 02:47:25;;;;;;;6.50;4.20;;;;;;;13.36;84.71;96159.75;1697842;82;20999;-83
2022/06/21 02:50:08;;;;;;;4.72;3.80;;;;;;;13.32;84.63;96163.24;1707840;82;21405;-81
2022/06/21 02:52:38;;;;;;;5.20;4.40;;;;;;;13.29;84.79;96156.33;1662855;84;21004;-81
2022/06/21 02:55:36;;;;;;;3.90;3.08;;;;;;;13.26;84.33;96164.06;1704485;82;20964;-81
2022/06/21 02:58:12;;;;;;;6.33;3.83;;;;;;;13.24;84.60;96171.30;1692843;82;21019;-81
2022/06/21 03:00:37;;;;;;;5.80;4.45;;;;;;;13.17;84.63;96175.17;1696538;83;20971;-81
2022/06/21 03:03:05;;;;;;;7.05;4.42;;;;;;;13.14;84.68;96174.28;1722700;82;20951;-81
2022/06/21 03:05:31;;;;;;;5.45;3.95;;;;;;;13.12;84.53;96176.80;1683998;82;20997;-81
2022/06/21 03:07:58;;;;;;;6.75;4.67;;;;;;;13.09;84.46;96174.09;1680468;82;21426;-81
2022/06/21 03:10:31;;;;;;;4.92;3.98;;;;;;;13.07;84.46;96184.43;1681688;83;20991;-81
2022/06/21 03:13:05;;;;;;;5.55;4.20;;;;;;;13.06;84.59;96182.83;1684173;84;20977;-81
2022/06/21 03:15:31;;;;;;;4.78;4.22;;;;;;;13.05;84.55;96177.31;1737113;80;21010;-80
2022/06/21 03:18:13;;;;;;;5.65;4.62;;;;;;;12.99;84.58;96174.98;1745498;80;20927;-80
2022/06/21 03:20:40;;;;;;;;;;;;;;;13.01;84.71;96175.59;1724975;80;21352;-80
2022/06/21 03:23:06;;;;;;;5.10;4.20;;;;;;;13.04;84.31;96174.41;1743467;80;20119;-80
2022/06/21 03:25:41;;;;;;;4.42;3.85;;;;;;;13.00;84.89;96164.05;1729314;82;21022;-81
2022/06/21 03:28:27;;;;;;;5.67;3.37;;;;;;;12.98;84.60;96165.56;1742819;80;21054;-80
2022/06/21 03:31:07;;;;;;;5.10;3.42;;;;;;;12.99;84.45;96161.95;1751826;81;20971;-81
2022/06/21 03:33:34;;;;;;;5.92;3.90;;;;;;;13.01;84.40;96167.77;1758538;81;20967;-80
2022/06/21 03:36:02;;;;;;;6.17;3.10;;;;;;;13.04;84.24;96175.21;1750440;80;21411;-81
2022/06/21 03:38:29;;;;;;;5.05;3.33;;;;;;;13.08;84.13;96176.41;1721262;81;21027;-81
2022/06/21 03:43:45;;;;;;;4.10;3.70;;;;;;;13.09;84.14;96183.22;1716386;82;21108;-82
2022/06/21 03:46:15;;;;;;;6.22;4.55;;;;;;;13.07;84.62;96189.65;1724539;81;21066;-82
2022/06/21 03:48:58;;;;;;;6.45;4.30;;;;;;;13.09;84.41;96191.55;1728438;80;21325;-82
2022/06/21 03:51:36;;;;;;;4.40;3.50;;;;;;;13.09;83.99;96188.44;1736778;82;20982;-82
2022/06/21 03:54:16;;;;;;;5.10;3.80;;;;;;;13.09;83.86;96188.94;1724323;82;21214;-82
2022/06/21 03:56:53;;;;;;;5.62;4.15;;;;;;;13.09;83.79;96191.05;1746007;80;20998;-83
2022/06/21 03:59:28;;;;;;;5.90;3.58;;;;;;;13.14;83.57;96195.15;1715860;82;20962;-83
2022/06/21 04:01:59;;;;;;;7.60;4.25;;;;;;;13.17;83.28;96190.02;1739638;81;20959;-81
2022/06/21 04:04:55;;;;;;;7.37;4.95;;;;;;;13.15;83.29;96195.45;1763570;80;21009;-81
2022/06/21 04:07:29;;;;;;;8.53;4.50;;;;;;;13.15;83.05;96201.17;1744282;81;21014;-82
2022/06/21 04:10:16;;;;;;;5.22;3.60;;;;;;;13.11;82.36;96194.76;1743030;80;20959;-82
2022/06/21 04:12:58;;;;;;;6.25;4.33;;;;;;;13.06;82.55;96190.66;1738547;81;21046;-83
2022/06/21 04:15:57;;;;;;;5.03;3.60;;;;;;;13.06;82.87;96187.55;1708719;83;21032;-83
2022/06/21 04:18:41;;;;;;;4.75;3.60;;;;;;;13.08;83.13;96190.75;1703597;81;20980;-83
2022/06/21 04:21:20;;;;;;;4.92;3.15;;;;;;;13.10;82.89;96184.02;1727294;81;21014;-83
2022/06/21 04:24:00;;;;;;;6.47;3.35;;;;;;;13.15;83.36;96181.60;1709978;82;21068;-84
2022/06/21 04:26:34;;;;;;;5.80;3.22;;;;;;;13.21;83.80;96175.63;1697490;83;21438;-83
2022/06/21 04:29:08;;;;;;;5.35;3.35;;;;;;;13.27;84.12;96176.11;1727823;82;20985;-83
2022/06/21 04:31:49;;;;;;;5.58;3.40;;;;;;;13.33;84.22;96178.39;1697472;83;21008;-83
2022/06/21 04:34:35;;;;;;;5.47;3.30;;;;;;;13.40;84.04;96178.70;1711566;81;20933;-80
2022/06/21 04:37:12;;;;;;;4.87;3.83;;;;;;;13.39;83.10;96177.09;1703630;81;20987;-81
2022/06/21 04:39:59;;;;;;;4.25;3.65;;;;;;;13.37;83.55;96184.33;1703374;83;21004;-83
2022/06/21 04:42:46;;;;;;;5.25;3.77;;;;;;;13.36;82.93;96189.76;1703852;81;21011;-82
2022/06/21 04:45:35;;;;;;;6.12;3.85;;;;;;;13.29;82.64;96189.75;1711540;81;20991;-81
2022/06/21 04:48:25;;;;;;;8.60;4.50;;;;;;;13.30;83.14;96190.55;1722956;81;20993;-82
2022/06/21 04:51:12;;;;;;;5.45;4.60;;;;;;;13.28;82.18;96189.45;1721444;83;21352;-81
2022/06/21 04:53:50;;;;;;;4.60;3.67;;;;;;;13.32;82.77;96187.23;1703594;83;21008;-82
2022/06/21 04:56:43;;;;;;;5.03;3.70;;;;;;;13.34;83.22;96180.00;1708201;81;20941;-81
2022/06/21 04:59:14;;;;;;;6.20;4.08;;;;;;;13.40;84.15;96187.03;1732307;81;21006;-82
2022/06/21 05:01:40;;;;;;;5.28;4.12;;;;;;;13.42;82.26;96183.71;1739603;81;20947;-81
2022/06/21 05:04:13;;;;;;;6.10;4.17;;;;;;;13.40;82.17;96188.34;1728648;81;21386;-82
2022/06/21 05:06:39;;;;;;;6.40;3.83;;;;;;;13.36;81.42;96188.45;1699560;83;21044;-81
2022/06/21 05:09:04;;;;;;;6.53;4.67;;;;;;;13.31;81.38;96191.65;1704367;81;21052;-81
2022/06/21 05:11:30;;;;;;;5.58;4.42;;;;;;;13.30;81.44;96193.16;1729355;81;21379;-81
2022/06/21 05:13:56;;;;;;;8.70;4.90;;;;;;;13.34;82.50;96193.05;1745987;81;20958;-81
2022/06/21 05:16:33;;;;;;;7.95;5.22;;;;;;;13.36;82.31;96190.56;1736960;81;21078;-82
2022/06/21 05:19:25;;;;;;;6.45;4.00;;;;;;;13.40;82.69;96189.64;1733548;81;20958;-81
2022/06/21 05:22:29;;;;;;;7.50;4.85;;;;;;;13.40;81.49;96193.55;1729654;81;20949;-82
2022/06/21 05:24:57;;;;;;;6.45;4.35;;;;;;;13.33;81.82;96197.97;1720598;81;21038;-81
2022/06/21 05:27:37;;;;;;;6.22;3.67;;;;;;;13.26;81.16;96187.55;1750964;81;20999;-81
2022/06/21 05:30:33;;;;;;;13.32;7.28;;;;;;;13.26;81.47;96191.46;1719445;81;20949;-81
2022/06/21 05:33:01;;;;;;;6.65;4.53;;;;;;;13.27;81.74;96190.96;1732488;81;21401;-81
2022/06/21 05:35:29;;;;;;;6.12;3.60;;;;;;;13.31;81.82;96192.95;1714455;81;21390;-81
2022/06/21 05:38:05;;;;;;;6.50;3.17;;;;;;;13.38;82.37;96202.09;1735705;81;20960;-81
2022/06/21 05:40:45;;;;;;;5.20;2.95;;;;;;;13.41;81.45;96202.48;1745600;81;20967;-82
2022/06/21 05:43:20;;;;;;;7.55;3.77;;;;;;;13.44;80.18;96201.27;1720881;81;20995;-84
2022/06/21 05:45:51;;;;;;;4.08;2.90;;;;;;;13.49;79.80;96201.45;1742854;81;21106;-81
2022/06/21 05:48:22;;;;;;;4.22;3.62;;;;;;;13.47;79.60;96208.69;1715128;81;21014;-81
2022/06/21 05:50:47;;;;;;;7.33;3.22;;;;;;;13.52;80.23;96197.16;1732151;81;21440;-81
2022/06/21 05:53:36;;;;;;;5.37;3.33;;;;;;;13.57;79.91;96205.17;1729007;81;20996;-81
2022/06/21 05:56:07;;;;;;;5.25;3.47;;;;;;;13.63;80.49;96210.86;1712195;83;21339;-82
2022/06/21 05:58:36;;;;;;;3.72;2.40;;;;;;;13.68;79.78;96214.98;1732400;81;20999;-82
2022/06/21 06:01:29;;;;;;;4.90;2.90;;;;;;;13.56;77.67;96214.00;1731791;81;21144;-82
2022/06/21 06:04:15;;;;;;;3.58;2.70;;;;;;;13.53;78.45;96218.33;1732840;81;20986;-82
2022/06/21 06:06:42;;;;;;;3.12;2.52;;;;;;;13.55;76.61;96209.79;1714686;81;21004;-81
2022/06/21 06:09:13;;;;;;;4.85;3.05;;;;;;;13.58;78.08;96215.91;1725038;82;20918;-81
2022/06/21 06:12:03;;;;;;;4.28;2.60;;;;;;;13.64;77.44;96207.24;1749985;81;21345;-81
2022/06/21 06:14:47;;;;;;;4.08;2.42;;;;;;;13.76;77.45;96211.34;1720446;81;20950;-82
2022/06/21 06:17:47;;;;;;;4.65;2.90;;;;;;;13.80;76.72;96204.69;1729409;83;20969;-81
2022/06/21 06:20:30;;;;;;;4.75;3.10;;;;;;;13.75;76.41;96205.31;1725690;81;20983;-82
2022/06/21 06:23:24;;;;;;;5.50;3.33;;;;;;;13.84;76.25;96205.10;1732207;81;21346;-82
2022/06/21 06:25:56;;;;;;;7.67;3.00;;;;;;;13.86;77.04;96200.47;1739905;81;20987;-80
2022/06/21 06:28:30;;;;;;;2.77;2.42;;;;;;;13.92;76.71;96214.00;1738760;81;21354;-81
2022/06/21 06:31:35;;;;;;;3.40;2.50;;;;;;;13.90;75.64;96218.63;1724283;81;21004;-82
2022/06/21 06:34:08;;;;;;;4.35;3.72;;;;;;;13.85;75.82;96218.45;1738091;81;20996;-82
2022/06/21 06:36:37;;;;;;;3.47;3.10;;;;;;;13.78;75.22;96219.27;1732616;81;20985;-82
2022/06/21 06:39:06;;;;;;;3.60;2.55;;;;;;;13.73;74.93;96224.81;1751366;81;21001;-82
2022/06/21 06:41:37;;;;;;;4.50;2.77;;;;;;;13.63;74.52;96228.34;1729055;81;21034;-82
2022/06/21 06:44:14;;;;;;;2.87;1.87;;;;;;;13.59;75.35;96227.15;1747151;81;20995;-82
2022/06/21 06:46:43;;;;;;;6.10;2.77;;;;;;;13.71;75.87;96222.91;1748327;81;21193;-82
2022/06/21 06:49:26;;;;;;;4.05;2.67;;;;;;;13.93;75.57;96216.41;1708980;81;21000;-81
2022/06/21 06:52:20;;;;;;;4.33;2.58;;;;;;;14.13;76.29;96216.32;1709724;82;21389;-82
2022/06/21 06:55:00;;;;;;;3.95;2.85;;;;;;;14.29;76.26;96216.35;1741328;81;20964;-82
2022/06/21 06:57:37;;;;;;;5.33;2.70;;;;;;;14.32;74.73;96211.53;1738613;81;21063;-82
2022/06/21 07:00:17;;;;;;;4.03;2.40;;;;;;;14.26;74.80;96216.27;1735325;80;21329;-82
2022/06/21 07:03:00;;;;;;;4.47;2.55;;;;;;;14.09;73.75;96227.70;1723953;81;21015;-81
2022/06/21 07:06:17;;;;;;;5.20;2.72;;;;;;;13.94;74.12;96238.10;1741840;80;20947;-81
2022/06/21 07:08:57;;;;;;;6.20;2.42;;;;;;;13.91;73.26;96244.55;1754455;80;20980;-82
2022/06/21 07:11:29;;;;;;;3.87;2.42;;;;;;;14.12;73.76;96233.01;1715295;82;20963;-82
2022/06/21 07:13:55;;;;;;;;;;;;;;;14.36;72.38;96229.70;1761974;81;21003;-82
2022/06/21 07:16:23;;;;;;;6.47;2.58;;;;;;;14.59;72.79;96229.70;1747694;81;20224;-83
2022/06/21 07:18:55;;;;;;;4.37;3.50;;;;;;;14.73;72.00;96219.45;1735005;81;21023;-82
2022/06/21 07:21:21;;;;;;;;;;;;;;;14.80;72.97;96224.63;1751388;81;20964;-82
2022/06/21 07:23:47;;;;;;;8.10;2.90;;;;;;;14.77;71.73;96227.67;1741287;81;20124;-82
2022/06/21 07:26:33;;;;;;;2.60;1.98;;;;;;;14.70;71.06;96232.45;1745308;81;20939;-82
2022/06/21 07:29:19;;;;;;;5.87;2.42;;;;;;;14.67;69.34;96236.80;1728574;81;20994;-81
2022/06/21 07:31:52;;;;;;;3.25;2.42;;;;;;;14.68;69.48;96241.52;1716971;81;20952;-82
2022/06/21 07:34:35;;;;;;;5.30;2.40;;;;;;;14.69;69.29;96234.77;1728907;81;21035;-82
2022/06/21 07:37:14;;;;;;;3.50;2.50;;;;;;;14.68;70.16;96244.14;1717040;81;21074;-82
2022/06/21 07:39:50;;;;;;;2.87;2.20;;;;;;;14.72;70.17;96247.93;1711206;81;20966;-83
2022/06/21 07:42:34;;;;;;;3.47;1.92;;;;;;;14.61;67.46;96257.23;1726038;81;20952;-82
2022/06/21 07:45:20;;;;;;;11.97;8.38;;;;;;;14.53;67.26;96254.88;1723067;81;21018;-82
2022/06/21 07:47:57;;;;;;;5.03;2.45;;;;;;;14.59;67.47;96253.23;1722226;81;21603;-82
2022/06/21 07:50:43;;;;;;;3.30;2.25;;;;;;;14.62;66.86;96261.45;1720644;81;21057;-83
2022/06/21 07:53:23;;;;;;;4.85;2.33;;;;;;;14.67;67.55;96251.19;1722098;81;20931;-83
2022/06/21 07:56:18;;;;;;;4.95;1.87;;;;;;;14.73;67.72;96256.07;1721030;81;20997;-82
2022/06/21 07:59:01;;;;;;;4.25;2.02;;;;;;;14.77;67.01;96262.98;1692918;83;21125;-81
2022/06/21 08:07:27;;;;;;;2.67;2.30;;;;;;;14.73;66.43;96257.38;1646874;83;20978;-81
2022/06/21 08:10:18;;;;;;;1.90;1.70;;;;;;;14.79;65.49;96257.83;1716835;81;20944;-83
2022/06/21 08:12:43;;;;;;;2.33;1.85;;;;;;;14.94;63.28;96258.84;1717243;81;20911;-81
2022/06/21 08:15:09;;;;;;;2.75;1.67;;;;;;;14.95;65.40;96256.02;1679222;81;21381;-81
2022/06/21 08:17:42;;;;;;;2.50;2.17;;;;;;;14.95;64.09;96254.70;1738704;81;21058;-81
2022/06/21 08:20:17;;;;;;;3.02;1.52;;;;;;;14.86;65.19;96252.07;1732488;81;21377;-82
2022/06/21 08:23:12;;;;;;;3.22;1.85;;;;;;;14.86;64.79;96256.50;1728875;81;21409;-82
2022/06/21 08:26:07;;;;;;;4.65;2.00;;;;;;;14.88;65.52;96259.20;1728644;81;20951;-82
2022/06/21 08:28:55;;;;;;;2.37;1.85;;;;;;;14.84;64.40;96246.25;1728839;81;21031;-83
2022/06/21 08:31:35;;;;;;;5.35;1.90;;;;;;;14.86;64.83;96257.30;1740334;81;20980;-81
2022/06/21 08:34:12;;;;;;;4.28;1.90;;;;;;;14.96;64.80;96260.23;1731794;81;21326;-82
2022/06/21 08:37:08;;;;;;;2.05;1.62;;;;;;;15.01;64.63;96261.73;1734575;81;21010;-82
2022/06/21 08:40:13;;;;;;;2.05;1.52;;;;;;;15.09;64.89;96271.63;1743051;80;21043;-81
2022/06/21 08:43:08;;;;;;;2.98;1.80;;;;;;;15.07;64.46;96267.12;1712268;82;20983;-84
2022/06/21 08:46:11;;;;;;;2.12;1.15;;;;;;;15.08;65.43;96276.57;1728011;81;20955;-82
2022/06/21 08:49:01;;;;;;;1.82;0.90;;;;;;;15.12;63.70;96280.36;1734247;82;20964;-83
2022/06/21 08:51:55;;;;;;;2.25;1.10;;;;;;;15.15;62.47;96285.19;1747402;81;21007;-83
2022/06/21 08:54:44;;;;;;;1.25;1.10;;;;;;;15.14;62.86;96284.91;1745873;80;21373;-82
2022/06/21 08:57:25;;;;;;;3.05;1.32;;;;;;;15.28;63.11;96277.22;1726159;81;21071;-82
2022/06/21 09:00:05;;;;;;;1.47;0.98;;;;;;;15.70;61.79;96277.00;1730997;81;21315;-83
2022/06/21 09:03:01;;;;;;;1.72;1.30;;;;;;;15.82;60.42;96288.88;1739198;82;20964;-83
2022/06/21 09:05:54;;;;;;;1.20;0.90;;;;;;;15.99;60.58;96292.54;1706930;83;21115;-82
2022/06/21 09:08:53;;;;;;;4.33;1.30;;;;;;;15.84;59.52;96284.23;1726975;81;20992;-83
2022/06/21 09:11:45;;;;;;;1.17;1.00;;;;;;;15.62;60.93;96282.53;1722982;82;20971;-83
2022/06/21 09:14:30;;;;;;;;;;;;;;;15.40;60.08;96285.19;1740420;82;21078;-82
2022/06/21 09:17:14;;;;;;;2.35;1.27;;;;;;;15.21;59.46;96283.02;1732911;81;20098;-82
2022/06/21 09:19:58;;;;;;;1.52;1.07;;;;;;;15.12;60.76;96281.67;1731335;82;21027;-82
2022/06/21 09:22:59;;;;;;;2.08;1.02;;;;;;;15.41;62.69;96277.62;1727467;81;20991;-82
2022/06/21 09:25:56;;;;;;;4.60;1.30;;;;;;;15.65;61.83;96282.09;1736026;81;20978;-82
2022/06/21 09:28:51;;;;;;;1.67;0.70;;;;;;;15.61;61.25;96292.17;1743902;81;20942;-81
2022/06/21 09:31:45;;;;;;;2.77;1.20;;;;;;;15.45;60.37;96295.30;1736902;81;21359;-82
2022/06/21 09:34:45;;;;;;;1.85;1.00;;;;;;;15.35;60.81;96291.08;1736442;80;20975;-83
2022/06/21 09:37:32;;;;;;;3.17;1.45;;;;;;;15.38;61.34;96295.88;1734629;81;21018;-83
2022/06/21 09:40:37;;;;;;;3.85;1.57;;;;;;;15.71;60.56;96303.99;1695141;82;21035;-82
2022/06/21 09:43:24;;;;;;;3.00;1.32;;;;;;;15.75;59.97;96299.92;1679081;83;21004;-82
2022/06/21 09:46:19;;;;;;;5.50;2.85;;;;;;;15.64;60.34;96288.86;1710973;80;20966;-82
2022/06/21 09:49:03;;;;;;;2.12;1.40;;;;;;;15.56;60.62;96288.58;1664234;82;21056;-82
2022/06/21 09:51:42;;;;;;;4.87;2.12;;;;;;;15.46;60.44;96302.68;1729386;80;21027;-83
2022/06/21 09:54:19;;;;;;;13.15;6.62;;;;;;;15.33;61.09;96301.47;1708546;81;21346;-83
2022/06/21 09:57:20;;;;;;;4.30;1.67;;;;;;;15.26;62.36;96302.81;1711596;81;21031;-83
2022/06/21 10:00:16;;;;;;;7.67;3.37;;;;;;;15.18;61.24;96300.47;1739235;80;21021;-82
2022/06/21 10:03:20;;;;;;;2.67;1.30;;;;;;;15.14;61.40;96304.53;1709919;81;21005;-83
2022/06/21 10:06:04;;;;;;;3.20;1.82;;;;;;;15.15;61.48;96302.20;1718136;81;20990;-82
2022/06/21 10:09:19;;;;;;;1.90;1.00;;;;;;;15.23;61.57;96304.55;1742410;80;20988;-82
2022/06/21 10:12:21;;;;;;;2.42;1.52;;;;;;;15.22;61.60;96304.25;1717193;81;21393;-82
2022/06/21 10:15:26;;;;;;;2.33;1.50;;;;;;;15.15;60.94;96304.31;1714877;81;20993;-82
2022/06/21 10:18:29;;;;;;;3.47;1.40;;;;;;;15.06;61.65;96319.16;1747353;80;21054;-83
2022/06/21 10:21:22;;;;;;;2.70;1.10;;;;;;;15.06;62.49;96319.96;1723064;81;20975;-82
2022/06/21 10:24:26;;;;;;;1.00;0.80;;;;;;;15.12;61.01;96317.00;1739834;81;20977;-82
2022/06/21 10:27:13;;;;;;;2.55;1.50;;;;;;;15.13;61.26;96309.44;1734292;81;20964;-82
2022/06/21 10:30:10;;;;;;;1.95;1.47;;;;;;;15.16;61.51;96305.91;1728695;81;20949;-82
2022/06/21 10:32:50;;;;;;;2.75;1.70;;;;;;;15.21;61.31;96306.58;1737316;81;21054;-82
2022/06/21 10:35:43;;;;;;;2.80;1.30;;;;;;;15.38;61.87;96322.05;1732041;82;20949;-83
2022/06/21 10:38:31;;;;;;;2.40;1.90;;;;;;;15.45;60.67;96318.87;1718863;83;21084;-83
2022/06/21 10:41:03;;;;;;;1.75;1.07;;;;;;;15.69;62.18;96311.27;1729927;83;20991;-83
2022/06/21 10:44:25;;;;;;;2.60;1.22;;;;;;;16.14;60.96;96313.16;1753608;81;20991;-83
2022/06/21 10:46:55;;;;;;;2.65;1.25;;;;;;;16.49;61.86;96314.16;1700644;82;22015;-83
2022/06/21 10:49:52;;;;;;;1.82;0.90;;;;;;;16.69;59.36;96313.13;1737737;81;21409;-83
2022/06/21 10:52:36;;;;;;;1.15;0.90;;;;;;;16.66;59.42;96313.05;1722321;82;21417;-82
2022/06/21 10:55:42;;;;;;;1.22;0.80;;;;;;;16.62;59.38;96325.52;1717592;83;21546;-82
2022/06/21 10:58:42;;;;;;;2.35;1.00;;;;;;;16.60;58.05;96310.00;1695676;83;20985;-82
2022/06/21 11:01:25;;;;;;;1.50;1.02;;;;;;;16.48;56.78;96320.94;1728505;82;21323;-84
2022/06/21 11:04:21;;;;;;;1.30;0.78;;;;;;;16.49;56.68;96313.36;1720966;81;21019;-83
2022/06/21 11:07:12;;;;;;;2.42;1.20;;;;;;;16.33;57.76;96322.62;1728395;82;20994;-84
2022/06/21 11:09:52;;;;;;;3.33;1.17;;;;;;;16.30;59.46;96319.64;1725977;82;21235;-84
2022/06/21 11:16:03;;;;;;;3.25;1.20;;;;;;;16.42;59.72;96321.28;1705973;81;21006;-83
2022/06/21 11:19:14;;;;;;;1.62;1.10;;;;;;;16.44;58.75;96297.49;1717078;82;21059;-83
2022/06/21 11:21:48;;;;;;;4.05;1.67;;;;;;;16.46;58.57;96306.73;1725525;81;21009;-83
2022/06/21 11:25:01;;;;;;;2.05;1.45;;;;;;;16.40;59.42;96304.97;1744020;81;21272;-82
2022/06/21 11:27:35;;;;;;;1.70;1.15;;;;;;;16.39;58.91;96309.12;1716961;81;21044;-83
2022/06/21 11:30:15;;;;;;;2.55;1.22;;;;;;;16.23;57.45;96314.45;1686665;83;21942;-83
2022/06/21 11:33:14;;;;;;;1.25;0.90;;;;;;;16.05;57.34;96320.48;1731279;81;21334;-83
2022/06/21 11:35:54;;;;;;;2.87;0.85;;;;;;;15.88;57.45;96322.07;1729048;82;20986;-82
2022/06/21 11:38:38;;;;;;;1.98;0.80;;;;;;;15.74;58.41;96319.27;1731738;81;20986;-85
2022/06/21 11:42:04;;;;;;;7.37;1.15;;;;;;;15.70;58.17;96321.53;1732427;82;21684;-82
2022/06/21 11:43:57;;;;;;;2.10;0.93;;;;;;;15.64;58.23;96321.09;1730343;82;20978;-83
2022/06/21 11:46:31;;;;;;;2.20;1.00;;;;;;;15.60;58.38;96315.96;1729383;82;21086;-83
2022/06/21 11:49:48;;;;;;;1.55;1.10;;;;;;;15.63;58.82;96322.61;1733960;82;21067;-83
2022/06/21 11:52:57;;;;;;;1.00;0.80;;;;;;;15.72;59.26;96331.79;1698700;83;20995;-83
2022/06/21 11:55:41;;;;;;;2.02;1.00;;;;;;;16.00;57.79;96319.55;1717692;81;21347;-83
2022/06/21 11:58:51;;;;;;;2.60;0.90;;;;;;;16.12;58.21;96313.88;1721514;81;21003;-83
2022/06/21 12:01:34;;;;;;;2.00;0.90;;;;;;;16.25;58.26;96318.16;1717538;81;21032;-82
2022/06/21 12:04:37;;;;;;;1.50;0.70;;;;;;;16.38;57.88;96312.27;1730349;81;21013;-83
2022/06/21 12:07:21;;;;;;;1.90;1.00;;;;;;;16.55;58.25;96315.59;1731841;81;21047;-82
2022/06/21 12:10:13;;;;;;;2.40;1.27;;;;;;;16.68;58.51;96310.22;1710030;81;20929;-82
2022/06/21 12:12:56;;;;;;;2.85;1.65;;;;;;;16.66;56.71;96309.11;1706980;81;21052;-83
2022/06/21 12:15:39;;;;;;;2.85;1.10;;;;;;;16.56;56.15;96321.13;1707701;81;21182;-83
2022/06/21 12:18:13;;;;;;;2.42;0.82;;;;;;;16.49;57.23;96318.09;1664057;82;21521;-83
2022/06/21 12:20:58;;;;;;;2.85;1.05;;;;;;;16.46;56.94;96320.36;1684844;82;21437;-83
2022/06/21 12:23:41;;;;;;;2.40;1.10;;;;;;;16.42;56.77;96319.17;1693942;83;21439;-83
2022/06/21 12:26:15;;;;;;;3.52;1.10;;;;;;;16.40;57.91;96319.39;1696297;82;21400;-83
2022/06/21 12:28:41;;;;;;;1.72;1.10;;;;;;;16.41;57.15;96324.12;1686996;82;21041;-83
2022/06/21 12:31:26;;;;;;;2.65;1.10;;;;;;;16.46;57.47;96323.78;1700263;82;20943;-83
2022/06/21 12:34:03;;;;;;;1.62;1.40;;;;;;;16.49;57.54;96328.58;1666408;84;21460;-83
2022/06/21 12:36:43;;;;;;;2.17;1.50;;;;;;;16.45;57.21;96330.05;1661692;82;21433;-83
2022/06/21 12:39:31;;;;;;;3.95;0.90;;;;;;;16.36;56.03;96331.34;1691790;83;21018;-82
2022/06/21 12:42:19;;;;;;;2.47;1.47;;;;;;;16.34;56.22;96324.73;1672400;84;21345;-83
2022/06/21 12:45:26;;;;;;;2.17;1.10;;;;;;;16.39;56.57;96319.62;1696279;84;21336;-82
2022/06/21 12:48:25;;;;;;;3.50;1.95;;;;;;;16.42;56.20;96325.73;1700537;84;21109;-82
2022/06/21 12:51:18;;;;;;;4.22;3.33;;;;;;;16.40;57.00;96308.91;1713187;82;21010;-83